Time;durP1;ratioP1;P1;durP2;ratioP2;P2;SDS_P1;SDS_P2;PMS_P1;PMS_P2;Temp;Humidity;BMP_temperature;BMP_pressure;BME280_temperature;BME280_humidity;BME280_pressure;Samples;Min_cycle;Max_cycle;Signal;HPM_P1;HPM_P2
2022/10/25 00:00:54;;;;;;;;;;;;;;;21.29;65.90;100728.50;5009085;28;2933;-60
2022/10/25 00:03:21;;;;;;;;;;;;;;;21.29;65.62;100724.88;5007733;28;1746;-61
2022/10/25 00:05:47;;;;;;;;;;;;;;;21.27;65.74;100725.53;5015440;28;3100;-61
2022/10/25 00:08:13;;;;;;;;;;;;;;;21.28;66.00;100724.16;5011946;28;2990;-61
2022/10/25 00:10:40;;;;;;;;;;;;;;;21.28;66.04;100724.16;5013118;28;3059;-60
2022/10/25 00:13:06;;;;;;;;;;;;;;;21.28;66.06;100723.41;5009855;28;2975;-61
2022/10/25 00:15:32;;;;;;;;;;;;;;;21.28;66.02;100727.03;5010821;28;3010;-60
2022/10/25 00:17:58;;;;;;;;;;;;;;;21.26;65.74;100729.84;5016125;28;2966;-61
2022/10/25 00:20:25;;;;;;;;;;;;;;;21.29;65.77;100725.63;5010224;28;2746;-61
2022/10/25 00:22:51;;;;;;;;;;;;;;;21.30;65.50;100729.25;5014698;28;3360;-63
2022/10/25 00:25:17;;;;;;;;;;;;;;;21.29;65.83;100716.97;5010615;28;2856;-62
2022/10/25 00:27:44;;;;;;;;;;;;;;;21.28;65.96;100721.28;5013605;28;3009;-63
2022/10/25 00:30:10;;;;;;;;;;;;;;;21.27;65.98;100719.78;5014548;28;3044;-62
2022/10/25 00:32:37;;;;;;;;;;;;;;;21.27;65.91;100731.31;5012723;28;2966;-63
2022/10/25 00:35:03;;;;;;;;;;;;;;;21.26;65.92;100726.94;5018878;28;3120;-63
2022/10/25 00:37:29;;;;;;;;;;;;;;;21.28;65.83;100721.28;5011810;28;2903;-63
2022/10/25 00:39:56;;;;;;;;;;;;;;;21.27;65.80;100725.53;5008727;28;3518;-63
2022/10/25 00:42:23;;;;;;;;;;;;;;;21.27;65.53;100728.41;5009046;28;3101;-63
2022/10/25 00:44:53;;;;;;;;;;;;;;;21.27;65.79;100728.41;5012250;28;2765;-62
2022/10/25 00:47:19;;;;;;;;;;;;;;;21.24;65.82;100726.88;5015648;28;3076;-63
2022/10/25 00:49:48;;;;;;;;;;;;;;;21.27;65.69;100725.53;5011416;28;3197;-61
2022/10/25 00:52:14;;;;;;;;;;;;;;;21.25;65.98;100728.34;5016970;28;3095;-61
2022/10/25 00:54:41;;;;;;;;;;;;;;;21.25;65.56;100728.34;5029550;28;2824;-61
2022/10/25 00:57:09;;;;;;;;;;;;;;;21.25;65.86;100728.34;5047408;28;3046;-61
2022/10/25 00:59:35;;;;;;;;;;;;;;;21.24;65.56;100721.09;5012342;28;2990;-61
2022/10/25 01:02:02;;;;;;;;;;;;;;;21.25;65.62;100716.09;5010178;28;3093;-62
2022/10/25 01:04:28;;;;;;;;;;;;;;;21.25;65.56;100728.34;5008516;28;3192;-61
2022/10/25 01:06:54;;;;;;;;;;;;;;;21.25;65.61;100718.97;5029670;28;3008;-62
2022/10/25 01:09:22;;;;;;;;;;;;;;;21.25;65.66;100721.84;5011952;28;3093;-62
2022/10/25 01:11:48;;;;;;;;;;;;;;;21.23;65.71;100725.38;5019231;28;3012;-61
2022/10/25 01:14:15;;;;;;;;;;;;;;;21.24;65.79;100729.00;5011450;28;3039;-61
2022/10/25 01:17:03;;;;;;;;;;;;;;;21.23;65.61;100727.50;5011797;28;3029;-62
2022/10/25 01:19:35;;;;;;;;;;;;;;;21.23;65.72;100719.59;5022919;28;3032;-62
2022/10/25 01:22:15;;;;;;;;;;;;;;;21.23;65.82;100725.38;5004422;28;3136;-61
2022/10/25 01:24:56;;;;;;;;;;;;;;;21.22;65.31;100715.25;5021154;28;2955;-61
2022/10/25 01:27:42;;;;;;;;;;;;;;;21.23;65.62;100727.50;5044694;28;3035;-61
2022/10/25 01:30:28;;;;;;;;;;;;;;;21.21;65.59;100721.66;5005123;28;2912;-61
2022/10/25 01:33:01;;;;;;;;;;;;;;;21.21;65.31;100731.06;5000136;28;3291;-61
2022/10/25 01:35:28;;;;;;;;;;;;;;;21.22;65.64;100721.03;5008358;28;2936;-62
2022/10/25 01:37:57;;;;;;;;;;;;;;;21.21;65.65;100731.06;5011151;28;2939;-62
2022/10/25 01:40:37;;;;;;;;;;;;;;;21.22;65.53;100728.94;5015025;28;3000;-62
2022/10/25 01:43:08;;;;;;;;;;;;;;;21.21;65.37;100728.19;5023644;28;3206;-62
2022/10/25 01:45:41;;;;;;;;;;;;;;;21.21;65.46;100728.19;5010984;28;2832;-62
2022/10/25 01:48:13;;;;;;;;;;;;;;;21.21;65.46;100719.56;5022964;28;3085;-61
2022/10/25 01:50:39;;;;;;;;;;;;;;;21.20;65.92;100720.19;5024407;28;2903;-61
2022/10/25 01:53:06;;;;;;;;;;;;;;;21.20;65.79;100720.94;5012322;28;3005;-61
2022/10/25 01:55:34;;;;;;;;;;;;;;;21.20;65.83;100720.19;5011531;28;3140;-62
2022/10/25 01:58:07;;;;;;;;;;;;;;;21.20;65.75;100714.44;5023037;28;2911;-62
2022/10/25 02:00:36;;;;;;;;;;;;;;;21.19;65.79;100719.47;5006592;28;2870;-62
2022/10/25 02:03:03;;;;;;;;;;;;;;;21.20;65.39;100731.72;5011097;28;2965;-62
2022/10/25 02:05:52;;;;;;;;;;;;;;;21.19;65.67;100725.22;5012943;28;2927;-62
2022/10/25 02:08:37;;;;;;;;;;;;;;;21.19;65.52;100725.22;5011687;28;2910;-62
2022/10/25 02:11:12;;;;;;;;;;;;;;;21.18;65.63;100729.50;5005814;28;2987;-62
2022/10/25 02:13:42;;;;;;;;;;;;;;;21.19;65.46;100730.22;5027933;28;2904;-62
2022/10/25 02:16:09;;;;;;;;;;;;;;;21.18;65.41;100728.75;5015906;28;3084;-62
2022/10/25 02:18:36;;;;;;;;;;;;;;;21.19;65.59;100727.34;5011253;28;2962;-62
2022/10/25 02:21:02;;;;;;;;;;;;;;;21.18;65.56;100729.50;5017089;28;2668;-61
2022/10/25 02:23:29;;;;;;;;;;;;;;;21.18;65.45;100735.25;5025391;28;3017;-62
2022/10/25 02:25:55;;;;;;;;;;;;;;;21.18;65.38;100735.25;5010130;28;3405;-62
2022/10/25 02:28:23;;;;;;;;;;;;;;;21.17;65.58;100733.78;5012501;28;3011;-61
2022/10/25 02:30:50;;;;;;;;;;;;;;;21.18;65.25;100723.72;5010548;28;3100;-61
2022/10/25 02:33:17;;;;;;;;;;;;;;;21.18;65.33;100729.50;5013777;28;3041;-61
2022/10/25 02:35:43;;;;;;;;;;;;;;;21.16;65.46;100726.53;5022907;28;3043;-61
2022/10/25 02:38:09;;;;;;;;;;;;;;;21.17;65.53;100733.78;5014456;28;2844;-61
2022/10/25 02:40:36;;;;;;;;;;;;;;;21.16;65.58;100738.03;5012875;28;3439;-61
2022/10/25 02:43:02;;;;;;;;;;;;;;;21.16;65.39;100726.53;5032585;28;3043;-61
2022/10/25 02:45:28;;;;;;;;;;;;;;;21.18;65.26;100735.25;5015046;28;2937;-61
2022/10/25 02:47:55;;;;;;;;;;;;;;;21.22;65.26;100732.53;5012035;28;3080;-61
2022/10/25 02:50:21;;;;;;;;;;;;;;;21.25;65.27;100736.97;5015001;28;2308;-61
2022/10/25 02:52:47;;;;;;;;;;;;;;;21.27;65.22;100736.31;5017558;28;2833;-61
2022/10/25 02:55:14;;;;;;;;;;;;;;;21.29;65.18;100739.28;5013357;28;2995;-61
2022/10/25 02:57:41;;;;;;;;;;;;;;;21.29;65.00;100740.03;5012744;28;3138;-61
2022/10/25 03:00:07;;;;;;;;;;;;;;;21.30;65.56;100744.41;5011384;28;3236;-61
2022/10/25 03:02:34;;;;;;;;;;;;;;;21.31;65.95;100743.00;5015968;28;3265;-61
2022/10/25 03:05:00;;;;;;;;;;;;;;;21.32;65.31;100755.97;5012703;28;2958;-61
2022/10/25 03:07:26;;;;;;;;;;;;;;;21.31;65.80;100748.75;5013706;28;2872;-61
2022/10/25 03:09:53;;;;;;;;;;;;;;;21.30;65.82;100747.28;5013668;28;2789;-61
2022/10/25 03:12:30;;;;;;;;;;;;;;;21.31;65.61;100748.75;5009495;28;3143;-61
2022/10/25 03:14:59;;;;;;;;;;;;;;;21.33;65.28;100757.47;5009560;28;3023;-61
2022/10/25 03:17:25;;;;;;;;;;;;;;;21.32;65.86;100755.97;5010577;28;2999;-62
2022/10/25 03:19:52;;;;;;;;;;;;;;;21.32;65.39;100755.97;5011457;28;2873;-61
2022/10/25 03:22:18;;;;;;;;;;;;;;;21.33;65.54;100763.25;5014139;28;3005;-61
2022/10/25 03:24:44;;;;;;;;;;;;;;;21.32;65.65;100761.75;5013692;28;3252;-61
2022/10/25 03:27:11;;;;;;;;;;;;;;;21.30;65.78;100761.69;5011668;28;3081;-61
2022/10/25 03:29:37;;;;;;;;;;;;;;;21.31;65.47;100760.28;5011194;28;3022;-61
2022/10/25 03:32:04;;;;;;;;;;;;;;;21.32;65.78;100761.75;5007836;28;3045;-61
2022/10/25 03:34:30;;;;;;;;;;;;;;;21.31;65.67;100766.03;5014174;28;2998;-61
2022/10/25 03:36:57;;;;;;;;;;;;;;;21.32;65.38;100773.25;5011481;28;2807;-61
2022/10/25 03:39:23;;;;;;;;;;;;;;;21.32;65.62;100769.66;5015418;28;3030;-61
2022/10/25 03:41:50;;;;;;;;;;;;;;;21.31;65.28;100771.78;5015843;28;3075;-61
2022/10/25 03:44:16;;;;;;;;;;;;;;;21.29;65.76;100777.47;5010071;28;3054;-61
2022/10/25 03:46:42;;;;;;;;;;;;;;;21.30;65.34;100787.59;5010800;28;2990;-61
2022/10/25 03:49:09;;;;;;;;;;;;;;;21.30;65.56;100781.84;5015664;28;2718;-61
2022/10/25 03:51:35;;;;;;;;;;;;;;;21.31;65.31;100786.19;5013908;28;3005;-61
2022/10/25 03:54:01;;;;;;;;;;;;;;;21.31;65.42;100783.31;5013027;28;3154;-61
2022/10/25 03:56:28;;;;;;;;;;;;;;;21.31;65.19;100800.59;5014703;28;3011;-61
2022/10/25 03:58:54;;;;;;;;;;;;;;;21.30;65.29;100787.59;5012944;28;2887;-61
2022/10/25 04:01:20;;;;;;;;;;;;;;;21.30;65.35;100793.38;5015503;28;2957;-61
2022/10/25 04:03:47;;;;;;;;;;;;;;;21.29;65.21;100791.88;5011527;28;3038;-61
2022/10/25 04:06:13;;;;;;;;;;;;;;;21.29;65.35;100803.38;5012954;28;2816;-61
2022/10/25 04:08:40;;;;;;;;;;;;;;;21.28;65.62;100798.28;5016020;28;2716;-62
2022/10/25 04:11:06;;;;;;;;;;;;;;;21.37;65.37;100796.47;5017168;28;1607;-61
2022/10/25 04:13:32;;;;;;;;;;;;;;;21.34;64.98;100799.28;5010301;28;3067;-62
2022/10/25 04:15:59;;;;;;;;;;;;;;;21.28;65.53;100795.41;5016108;28;2983;-61
2022/10/25 04:18:25;;;;;;;;;;;;;;;21.28;65.12;100799.03;5015338;28;3448;-61
2022/10/25 04:20:51;;;;;;;;;;;;;;;21.29;65.65;100799.78;5013858;28;3033;-62
2022/10/25 04:23:18;;;;;;;;;;;;;;;21.26;65.58;100798.94;5013887;28;3049;-61
2022/10/25 04:25:45;;;;;;;;;;;;;;;21.26;65.66;100804.72;5015452;28;2643;-62
2022/10/25 04:28:11;;;;;;;;;;;;;;;21.30;65.23;100804.88;5009334;28;2892;-62
2022/10/25 04:30:37;;;;;;;;;;;;;;;21.25;65.40;100803.22;5013634;28;3098;-62
2022/10/25 04:33:04;;;;;;;;;;;;;;;21.23;65.46;100800.25;5012881;28;3141;-62
2022/10/25 04:35:30;;;;;;;;;;;;;;;21.22;65.65;100810.28;5012384;28;3331;-61
2022/10/25 04:37:57;;;;;;;;;;;;;;;21.21;65.79;100808.81;5014064;28;2924;-62
2022/10/25 04:40:23;;;;;;;;;;;;;;;21.20;65.66;100813.09;5012672;28;2891;-62
2022/10/25 04:42:50;;;;;;;;;;;;;;;21.20;65.95;100813.09;5013261;28;3017;-62
2022/10/25 04:45:16;;;;;;;;;;;;;;;21.20;65.86;100801.56;5012980;28;2994;-61
2022/10/25 04:47:42;;;;;;;;;;;;;;;21.20;65.51;100795.81;5015620;28;2957;-62
2022/10/25 04:50:09;;;;;;;;;;;;;;;21.19;65.74;100800.09;5012959;28;3085;-61
2022/10/25 04:52:35;;;;;;;;;;;;;;;21.18;65.66;100800.75;4996993;28;3009;-62
2022/10/25 04:55:01;;;;;;;;;;;;;;;21.19;65.49;100793.56;5017332;28;2800;-62
2022/10/25 04:57:28;;;;;;;;;;;;;;;21.17;66.04;100802.16;5017387;28;2671;-62
2022/10/25 04:59:56;;;;;;;;;;;;;;;21.15;66.27;100794.16;5014345;28;2896;-62
2022/10/25 05:02:22;;;;;;;;;;;;;;;21.17;66.01;100802.88;5016837;28;2825;-63
2022/10/25 05:04:49;;;;;;;;;;;;;;;21.18;66.09;100806.50;5016017;28;1625;-62
2022/10/25 05:07:16;;;;;;;;;;;;;;;21.17;66.09;100808.66;5010909;28;3048;-63
2022/10/25 05:09:42;;;;;;;;;;;;;;;21.16;65.88;100804.28;5008467;28;2838;-62
2022/10/25 05:12:12;;;;;;;;;;;;;;;21.16;66.09;100803.53;5016310;28;2966;-62
2022/10/25 05:14:39;;;;;;;;;;;;;;;21.21;65.61;100803.06;5015207;28;3136;-62
2022/10/25 05:17:05;;;;;;;;;;;;;;;21.18;66.09;100795.72;5012269;28;3000;-62
2022/10/25 05:19:31;;;;;;;;;;;;;;;21.23;65.83;100799.50;5010882;28;2920;-67
2022/10/25 05:21:58;;;;;;;;;;;;;;;21.25;65.67;100802.47;5011814;28;3139;-70
2022/10/25 05:24:26;;;;;;;;;;;;;;;21.22;65.98;100810.28;4997682;28;4482;-70
2022/10/25 05:26:56;;;;;;;;;;;;;;;21.29;66.29;100817.78;5011031;28;4358;-68
2022/10/25 05:29:23;;;;;;;;;;;;;;;21.20;66.64;100813.09;5003839;28;3095;-70
2022/10/25 05:31:49;;;;;;;;;;;;;;;21.19;67.01;100811.63;5006857;28;4584;-68
2022/10/25 05:34:16;;;;;;;;;;;;;;;21.45;66.85;100814.88;5014624;28;4459;-70
2022/10/25 05:36:45;;;;;;;;;;;;;;;21.59;66.35;100820.47;5013416;28;3163;-71
2022/10/25 05:39:11;;;;;;;;;;;;;;;21.66;65.83;100821.47;5014137;28;3363;-72
2022/10/25 05:41:37;;;;;;;;;;;;;;;21.71;65.94;100820.22;5002948;28;4846;-72
2022/10/25 05:44:04;;;;;;;;;;;;;;;21.55;65.44;100828.94;4999869;28;3253;-78
2022/10/25 05:46:31;;;;;;;;;;;;;;;21.56;65.90;100841.22;5017459;28;3194;-74
2022/10/25 05:48:58;;;;;;;;;;;;;;;21.58;65.78;100835.53;5013179;28;3084;-71
2022/10/25 05:51:25;;;;;;;;;;;;;;;21.43;65.98;100834.22;5010399;28;2913;-68
2022/10/25 05:54:10;;;;;;;;;;;;;;;21.33;66.03;100843.88;5008754;28;3351;-73
2022/10/25 05:56:37;;;;;;;;;;;;;;;21.28;66.42;100842.25;5009495;28;3285;-71
2022/10/25 05:59:07;;;;;;;;;;;;;;;21.25;66.32;100849.28;5013808;28;3016;-74
2022/10/25 06:01:33;;;;;;;;;;;;;;;21.24;66.29;100844.94;5002913;28;3163;-74
2022/10/25 06:04:00;;;;;;;;;;;;;;;21.23;66.36;100849.19;5008501;28;2907;-74
2022/10/25 06:06:26;;;;;;;;;;;;;;;21.24;66.21;100847.81;5007774;28;3143;-76
2022/10/25 06:08:56;;;;;;;;;;;;;;;21.21;66.18;100843.38;5008199;28;2910;-76
2022/10/25 06:11:22;;;;;;;;;;;;;;;21.21;66.13;100866.41;5011132;28;3187;-76
2022/10/25 06:13:49;;;;;;;;;;;;;;;21.19;66.12;100862.69;5014357;28;2865;-76
2022/10/25 06:16:15;;;;;;;;;;;;;;;21.19;66.06;100877.09;5018238;28;2989;-76
2022/10/25 06:18:42;;;;;;;;;;;;;;;21.12;66.39;100873.22;5019352;28;3004;-76
2022/10/25 06:21:11;;;;;;;;;;;;;;;21.12;66.32;100873.22;5014227;28;3421;-76
2022/10/25 06:23:38;;;;;;;;;;;;;;;21.13;66.35;100877.56;5017664;28;2862;-75
2022/10/25 06:26:06;;;;;;;;;;;;;;;21.15;66.36;100879.81;5012482;28;2838;-78
2022/10/25 06:28:32;;;;;;;;;;;;;;;21.41;69.20;100883.84;5013036;28;4887;-65
2022/10/25 06:30:59;;;;;;;;;;;;;;;21.81;66.30;100883.31;5016376;28;4873;-70
2022/10/25 06:33:25;;;;;;;;;;;;;;;21.87;65.22;100881.41;5022240;28;3264;-70
2022/10/25 06:35:53;;;;;;;;;;;;;;;21.55;66.13;100883.69;5017078;28;3169;-66
2022/10/25 06:38:20;;;;;;;;;;;;;;;21.47;66.53;100886.25;5013012;28;3052;-70
2022/10/25 06:40:49;;;;;;;;;;;;;;;21.62;67.12;100890.44;5017027;28;4642;-68
2022/10/25 06:43:15;;;;;;;;;;;;;;;21.50;65.94;100890.69;5016671;28;3046;-67
2022/10/25 06:45:41;;;;;;;;;;;;;;;21.51;66.64;100903.72;5013374;28;3111;-65
2022/10/25 06:48:08;;;;;;;;;;;;;;;21.53;66.17;100901.66;5020234;28;3385;-69
2022/10/25 06:50:34;;;;;;;;;;;;;;;21.93;65.46;100901.84;5022588;28;4873;-69
2022/10/25 06:53:01;;;;;;;;;;;;;;;22.04;65.47;100914.53;5006372;28;5037;-68
2022/10/25 06:55:27;;;;;;;;;;;;;;;22.09;64.81;100906.78;5017097;28;3198;-69
2022/10/25 06:58:00;;;;;;;;;;;;;;;22.12;64.08;100917.72;5016248;28;3006;-63
2022/10/25 07:00:26;;;;;;;;;;;;;;;22.06;62.91;100920.38;5017770;28;3202;-71
2022/10/25 07:02:54;;;;;;;;;;;;;;;21.52;64.00;100919.59;5015126;28;3080;-69
2022/10/25 07:05:20;;;;;;;;;;;;;;;21.93;64.13;100927.03;5012921;28;3179;-70
2022/10/25 07:07:47;;;;;;;;;;;;;;;22.01;63.82;100927.34;5011983;28;2632;-64
2022/10/25 07:10:17;;;;;;;;;;;;;;;22.09;64.37;100924.81;5013733;28;3298;-64
2022/10/25 07:12:44;;;;;;;;;;;;;;;22.15;64.05;100933.72;5014693;28;2911;-63
2022/10/25 07:15:10;;;;;;;;;;;;;;;22.18;63.74;100926.63;5012276;28;3022;-62
2022/10/25 07:21:43;;;;;;;;;;;;;;;22.22;63.19;100936.88;5003586;28;3073;-62
2022/10/25 07:24:10;;;;;;;;;;;;;;;21.82;64.05;100940.28;5009596;28;4726;-67
2022/10/25 07:26:36;;;;;;;;;;;;;;;21.61;65.04;100935.81;5011767;28;2869;-66
2022/10/25 07:29:03;;;;;;;;;;;;;;;21.51;65.71;100944.03;5010601;28;3196;-67
2022/10/25 07:31:30;;;;;;;;;;;;;;;21.50;65.74;100943.28;5009757;28;2956;-67
2022/10/25 07:33:57;;;;;;;;;;;;;;;21.75;65.06;100950.81;5015551;28;3062;-65
2022/10/25 07:36:23;;;;;;;;;;;;;;;21.83;64.54;100953.31;5009854;28;4289;-66
2022/10/25 07:38:49;;;;;;;;;;;;;;;21.99;64.37;100956.13;5007657;28;2855;-62
2022/10/25 07:41:16;;;;;;;;;;;;;;;22.00;64.46;100946.06;5008280;28;3178;-62
2022/10/25 07:43:42;;;;;;;;;;;;;;;22.17;63.80;100959.75;5012707;28;2911;-63
2022/10/25 07:46:09;;;;;;;;;;;;;;;22.18;63.41;100949.69;5018104;28;2911;-65
2022/10/25 07:48:35;;;;;;;;;;;;;;;22.23;63.51;100955.66;5014681;28;2985;-65
2022/10/25 07:51:05;;;;;;;;;;;;;;;22.26;63.49;100952.19;5018637;28;3020;-66
2022/10/25 07:53:32;;;;;;;;;;;;;;;22.26;63.14;100960.09;5010888;28;3474;-65
2022/10/25 07:55:58;;;;;;;;;;;;;;;22.26;63.15;100960.09;5010694;28;3192;-65
2022/10/25 07:58:24;;;;;;;;;;;;;;;22.25;63.34;100968.03;5013689;28;3027;-64
2022/10/25 08:00:51;;;;;;;;;;;;;;;22.28;63.30;100945.78;5013737;28;3343;-64
2022/10/25 08:03:17;;;;;;;;;;;;;;;22.25;63.05;100947.84;4999056;28;3147;-64
2022/10/25 08:05:44;;;;;;;;;;;;;;;22.24;63.28;100957.13;5010091;28;3248;-62
2022/10/25 08:08:10;;;;;;;;;;;;;;;22.06;63.34;100962.88;5012595;28;3136;-67
2022/10/25 08:10:37;;;;;;;;;;;;;;;21.80;64.65;100956.75;5006318;28;4697;-69
2022/10/25 08:13:03;;;;;;;;;;;;;;;21.66;65.18;100965.56;5012752;28;2649;-70
2022/10/25 08:15:29;;;;;;;;;;;;;;;21.57;65.57;100961.56;5016345;28;2489;-69
2022/10/25 08:17:56;;;;;;;;;;;;;;;21.55;65.36;100961.47;5012669;28;2835;-68
2022/10/25 08:20:30;;;;;;;;;;;;;;;21.57;65.08;100964.47;5012164;28;4521;-69
2022/10/25 08:23:16;;;;;;;;;;;;;;;22.04;65.14;100969.31;5012726;28;4719;-65
2022/10/25 08:25:43;;;;;;;;;;;;;;;22.16;64.56;100972.69;5003124;28;4377;-61
2022/10/25 08:28:09;;;;;;;;;;;;;;;22.25;64.34;100964.41;5002039;28;5257;-66
2022/10/25 08:30:36;;;;;;;;;;;;;;;22.12;64.59;100972.50;5013271;28;2923;-67
2022/10/25 08:33:02;;;;;;;;;;;;;;;22.10;64.26;100971.69;5004859;28;4437;-72
2022/10/25 08:35:28;;;;;;;;;;;;;;;22.20;63.83;100965.63;5002514;28;3070;-69
2022/10/25 08:37:55;;;;;;;;;;;;;;;22.31;63.78;100973.28;5013380;28;3109;-68
2022/10/25 08:40:25;;;;;;;;;;;;;;;22.22;63.64;100971.47;5005893;28;2911;-70
2022/10/25 08:43:11;;;;;;;;;;;;;;;22.16;64.17;100969.06;5006101;28;3006;-67
2022/10/25 08:45:38;;;;;;;;;;;;;;;22.32;63.94;100980.56;5024680;28;3209;-67
2022/10/25 08:48:08;;;;;;;;;;;;;;;22.39;63.50;100979.38;5029630;28;2982;-69
2022/10/25 08:50:37;;;;;;;;;;;;;;;22.44;63.11;100981.03;5011431;28;4619;-67
2022/10/25 08:53:04;;;;;;;;;;;;;;;22.14;63.75;100981.25;4997921;28;3171;-72
2022/10/25 08:55:34;;;;;;;;;;;;;;;21.87;64.96;100990.22;5011929;28;3260;-70
2022/10/25 08:58:06;;;;;;;;;;;;;;;22.20;65.02;100992.31;5028080;28;3018;-69
2022/10/25 09:00:36;;;;;;;;;;;;;;;22.56;63.53;100984.41;5006743;28;3020;-71
2022/10/25 09:03:02;;;;;;;;;;;;;;;22.58;63.76;100981.56;5010945;28;2904;-69
2022/10/25 09:05:32;;;;;;;;;;;;;;;22.72;63.22;100992.19;5011466;28;3162;-71
2022/10/25 09:08:20;;;;;;;;;;;;;;;22.60;63.43;100986.69;5012039;28;2942;-66
2022/10/25 09:10:49;;;;;;;;;;;;;;;22.75;62.99;100985.13;5007260;28;2959;-70
2022/10/25 09:13:29;;;;;;;;;;;;;;;22.86;62.61;100989.88;5008728;28;2899;-69
2022/10/25 09:16:00;;;;;;;;;;;;;;;22.88;62.55;100992.81;5002689;28;3130;-68
2022/10/25 09:18:41;;;;;;;;;;;;;;;22.82;62.63;100981.06;5011619;28;3036;-64
2022/10/25 09:21:10;;;;;;;;;;;;;;;22.79;62.91;100991.78;5024990;28;2985;-64
2022/10/25 09:23:43;;;;;;;;;;;;;;;22.82;62.70;100997.66;5007170;28;3461;-63
2022/10/25 09:26:20;;;;;;;;;;;;;;;22.92;62.77;100992.25;5008163;28;2895;-61
2022/10/25 09:28:52;;;;;;;;;;;;;;;22.96;62.47;100993.13;5009712;28;2901;-64
2022/10/25 09:31:21;;;;;;;;;;;;;;;22.91;62.53;100996.56;5037998;28;2953;-63
2022/10/25 09:33:47;;;;;;;;;;;;;;;22.95;62.34;101009.00;5005006;28;3289;-65
2022/10/25 09:36:14;;;;;;;;;;;;;;;22.87;60.63;101008.69;5002979;28;3132;-66
2022/10/25 09:38:45;;;;;;;;;;;;;;;22.74;59.04;101012.50;5006705;28;2843;-64
2022/10/25 09:41:22;;;;;;;;;;;;;;;22.31;58.90;101007.91;5009432;28;2956;-63
2022/10/25 09:44:02;;;;;;;;;;;;;;;22.70;59.15;101018.09;5010776;28;3085;-63
2022/10/25 09:46:31;;;;;;;;;;;;;;;22.94;60.54;101013.28;5021686;28;2980;-65
2022/10/25 09:49:18;;;;;;;;;;;;;;;22.91;61.17;101011.72;5004113;28;3001;-68
2022/10/25 09:52:02;;;;;;;;;;;;;;;22.82;61.11;101015.72;4986713;28;3187;-62
2022/10/25 09:54:34;;;;;;;;;;;;;;;22.84;60.81;101020.78;5018438;28;2884;-63
2022/10/25 09:57:00;;;;;;;;;;;;;;;22.90;60.06;101029.72;5001131;28;2979;-62
2022/10/25 09:59:27;;;;;;;;;;;;;;;22.94;60.00;101024.81;5007041;28;2947;-65
2022/10/25 10:01:53;;;;;;;;;;;;;;;22.84;59.79;101020.78;5006044;28;3280;-65
2022/10/25 10:04:25;;;;;;;;;;;;;;;22.32;61.25;101027.44;5014392;28;3061;-66
2022/10/25 10:06:52;;;;;;;;;;;;;;;22.20;61.79;101034.84;5003183;28;3042;-62
2022/10/25 10:09:19;;;;;;;;;;;;;;;22.05;61.51;101033.50;5011170;28;3109;-63
2022/10/25 10:11:46;;;;;;;;;;;;;;;21.93;61.84;101025.06;5010603;28;3084;-61
2022/10/25 10:14:21;;;;;;;;;;;;;;;22.12;61.60;101033.09;5004622;28;3035;-61
2022/10/25 10:16:48;;;;;;;;;;;;;;;22.30;62.08;101029.50;5008809;28;3308;-61
2022/10/25 10:19:25;;;;;;;;;;;;;;;22.58;62.23;101030.66;5011236;28;3336;-60
2022/10/25 10:22:01;;;;;;;;;;;;;;;22.59;61.23;101032.16;5011873;28;4226;-57
2022/10/25 10:24:46;;;;;;;;;;;;;;;22.50;62.90;101041.88;5020572;28;3261;-58
2022/10/25 10:27:23;;;;;;;;;;;;;;;21.95;62.00;101039.56;5014119;28;3084;-73
2022/10/25 10:29:59;;;;;;;;;;;;;;;21.80;60.99;101037.47;5013596;28;2547;-64
2022/10/25 10:32:26;;;;;;;;;;;;;;;21.64;59.71;101038.25;5011747;28;3165;-59
2022/10/25 10:34:53;;;;;;;;;;;;;;;21.94;57.93;101046.72;5000710;28;3014;-61
2022/10/25 10:37:21;;;;;;;;;;;;;;;22.12;57.30;101050.38;5011135;28;2995;-60
2022/10/25 10:39:54;;;;;;;;;;;;;;;22.16;57.33;101049.81;5011306;28;3059;-60
2022/10/25 10:42:36;;;;;;;;;;;;;;;21.93;59.88;101051.03;5008056;28;3653;-65
2022/10/25 10:45:09;;;;;;;;;;;;;;;21.79;59.45;101047.53;5016036;28;2950;-62
2022/10/25 10:47:50;;;;;;;;;;;;;;;21.56;57.85;101054.47;5010454;28;3658;-65
2022/10/25 10:50:23;;;;;;;;;;;;;;;21.57;57.16;101044.41;5008537;28;3221;-61
2022/10/25 10:52:52;;;;;;;;;;;;;;;21.71;56.77;101045.75;5013539;28;3103;-61
2022/10/25 10:55:26;;;;;;;;;;;;;;;21.78;55.91;101046.03;5010065;28;3406;-60
2022/10/25 10:57:53;;;;;;;;;;;;;;;21.76;55.98;101049.56;5025596;28;3102;-60
2022/10/25 11:00:29;;;;;;;;;;;;;;;21.61;56.02;101053.22;5012558;28;2974;-60
2022/10/25 11:02:55;;;;;;;;;;;;;;;21.78;55.52;101048.91;5029928;28;3124;-62
2022/10/25 11:05:30;;;;;;;;;;;;;;;21.89;55.02;101053.72;5015328;28;3056;-67
2022/10/25 11:07:56;;;;;;;;;;;;;;;21.95;54.69;101057.63;5025140;28;2827;-67
2022/10/25 11:10:29;;;;;;;;;;;;;;;21.99;54.48;101048.41;5015251;28;3018;-62
2022/10/25 11:13:05;;;;;;;;;;;;;;;21.94;54.76;101058.25;5012945;28;2780;-65
2022/10/25 11:15:33;;;;;;;;;;;;;;;21.92;54.53;101055.28;5014084;28;3080;-67
2022/10/25 11:18:00;;;;;;;;;;;;;;;21.88;54.43;101052.25;5008286;28;3786;-66
2022/10/25 11:20:26;;;;;;;;;;;;;;;21.94;53.85;101069.78;5012931;28;3305;-66
2022/10/25 11:23:01;;;;;;;;;;;;;;;21.90;53.81;101053.06;5015495;28;3003;-67
2022/10/25 11:25:51;;;;;;;;;;;;;;;21.78;53.78;101046.03;5020526;28;3048;-63
2022/10/25 11:28:24;;;;;;;;;;;;;;;21.79;54.10;101047.53;5006499;28;2980;-63
2022/10/25 11:30:58;;;;;;;;;;;;;;;21.82;53.60;101051.97;5020358;28;2930;-65
2022/10/25 11:33:27;;;;;;;;;;;;;;;21.83;53.65;101050.56;5028424;28;3659;-69
2022/10/25 11:35:53;;;;;;;;;;;;;;;21.82;53.85;101046.94;5016217;28;4992;-69
2022/10/25 11:38:23;;;;;;;;;;;;;;;21.85;53.72;101050.66;5018430;28;3004;-69
2022/10/25 11:41:01;;;;;;;;;;;;;;;21.90;53.57;101049.47;5017622;28;3766;-69
2022/10/25 11:43:41;;;;;;;;;;;;;;;21.71;54.18;101047.91;5026241;28;3039;-56
2022/10/25 11:46:10;;;;;;;;;;;;;;;21.70;54.12;101040.66;5020070;28;2911;-57
2022/10/25 11:48:39;;;;;;;;;;;;;;;21.89;53.96;101048.69;5018356;28;4455;-52
2022/10/25 11:51:09;;;;;;;;;;;;;;;22.08;53.83;101061.00;5014579;28;2905;-53
2022/10/25 11:53:39;;;;;;;;;;;;;;;22.12;53.83;101053.28;5012261;28;2905;-54
2022/10/25 11:56:13;;;;;;;;;;;;;;;22.03;54.02;101054.31;5027112;28;4363;-58
2022/10/25 11:58:39;;;;;;;;;;;;;;;22.09;54.77;101057.47;5012395;28;3048;-58
2022/10/25 12:01:05;;;;;;;;;;;;;;;22.23;54.65;101062.41;5014329;28;3013;-58
2022/10/25 12:03:35;;;;;;;;;;;;;;;22.32;55.05;101072.88;5012870;28;4426;-54
2022/10/25 12:06:19;;;;;;;;;;;;;;;22.21;55.67;101068.81;5023911;28;3357;-63
2022/10/25 12:08:55;;;;;;;;;;;;;;;22.24;56.02;101066.75;5010259;28;4480;-55
2022/10/25 12:11:26;;;;;;;;;;;;;;;22.26;56.10;101072.59;5010229;28;3045;-54
2022/10/25 12:13:53;;;;;;;;;;;;;;;22.24;56.52;101076.16;5010484;28;2875;-55
2022/10/25 12:16:20;;;;;;;;;;;;;;;22.41;56.38;101074.69;5011774;28;2992;-60
2022/10/25 12:18:58;;;;;;;;;;;;;;;22.47;56.57;101077.84;5009327;28;3099;-58
2022/10/25 12:21:29;;;;;;;;;;;;;;;22.36;57.05;101076.66;5024200;28;3879;-57
2022/10/25 12:23:56;;;;;;;;;;;;;;;22.27;57.64;101071.97;5011780;28;3296;-57
2022/10/25 12:26:24;;;;;;;;;;;;;;;22.38;57.69;101076.00;5008055;28;3716;-54
2022/10/25 12:28:51;;;;;;;;;;;;;;;22.24;58.59;101075.41;5013743;28;3098;-55
2022/10/25 12:31:22;;;;;;;;;;;;;;;22.12;59.06;101066.94;5025730;28;4435;-55
2022/10/25 12:33:54;;;;;;;;;;;;;;;22.05;59.39;101073.88;5013298;28;2983;-54
2022/10/25 12:36:23;;;;;;;;;;;;;;;22.08;60.32;101075.44;5011333;28;3126;-58
2022/10/25 12:38:49;;;;;;;;;;;;;;;21.91;61.25;101077.63;5028523;28;3023;-55
2022/10/25 12:41:17;;;;;;;;;;;;;;;21.91;60.98;101091.28;5013538;28;3104;-58
2022/10/25 12:43:48;;;;;;;;;;;;;;;22.00;60.65;101081.59;5014466;28;3083;-60
2022/10/25 12:46:15;;;;;;;;;;;;;;;22.17;59.56;101080.13;5011275;28;3111;-57
2022/10/25 12:48:56;;;;;;;;;;;;;;;22.11;61.10;101085.66;5015911;28;2517;-58
2022/10/25 12:51:37;;;;;;;;;;;;;;;22.45;60.08;101085.63;5017506;28;2871;-57
2022/10/25 12:54:26;;;;;;;;;;;;;;;22.54;60.24;101093.22;5010692;28;1648;-56
2022/10/25 12:56:59;;;;;;;;;;;;;;;22.50;60.46;101093.81;5029674;28;3090;-57
2022/10/25 12:59:44;;;;;;;;;;;;;;;22.47;60.32;101082.84;5010149;28;3150;-56
2022/10/25 13:02:26;;;;;;;;;;;;;;;22.50;60.69;101088.06;5014497;28;2991;-54